createdAt,value
2023-10-20T00:00:30.988Z,0.00
2023-10-20T00:01:30.407Z,0.00
2023-10-20T00:02:31.213Z,0.00
2023-10-20T00:03:30.433Z,0.00
2023-10-20T00:04:30.422Z,0.00
2023-10-20T00:05:30.434Z,0.00
2023-10-20T00:06:31.079Z,0.00
2023-10-20T00:07:30.301Z,0.00
2023-10-20T00:08:30.339Z,0.00
2023-10-20T00:09:30.282Z,0.00
2023-10-20T00:10:31.011Z,0.00
2023-10-20T00:11:31.123Z,0.00
2023-10-20T00:12:30.655Z,0.00
2023-10-20T00:13:31.001Z,0.00
2023-10-20T00:14:31.158Z,0.00
2023-10-20T00:15:30.201Z,0.00
2023-10-20T00:16:30.317Z,0.00
2023-10-20T00:17:31.044Z,0.00
2023-10-20T00:18:30.312Z,0.00
2023-10-20T00:19:30.134Z,0.00
2023-10-20T00:20:30.889Z,0.00
2023-10-20T00:21:31.503Z,0.00
2023-10-20T00:22:30.816Z,0.00
2023-10-20T00:23:30.880Z,0.00
2023-10-20T00:24:30.170Z,0.00
2023-10-20T00:25:30.802Z,0.00
2023-10-20T00:26:30.112Z,0.00
2023-10-20T00:27:30.029Z,0.00
2023-10-20T00:28:30.756Z,0.00
2023-10-20T00:29:30.805Z,0.00
2023-10-20T00:30:31.385Z,0.00
2023-10-20T00:31:31.431Z,0.00
2023-10-20T00:32:30.057Z,0.00
2023-10-20T00:33:30.682Z,0.00
2023-10-20T00:34:31.508Z,0.00
2023-10-20T00:35:29.932Z,0.00
2023-10-20T00:36:30.618Z,0.00
2023-10-20T00:37:30.619Z,0.00
2023-10-20T00:38:30.689Z,0.00
2023-10-20T00:39:29.855Z,0.00
2023-10-20T00:40:29.834Z,0.00
2023-10-20T00:41:30.620Z,0.00
2023-10-20T00:42:29.805Z,0.00
2023-10-20T00:43:29.812Z,0.00
2023-10-20T00:44:32.087Z,0.00
2023-10-20T00:45:29.821Z,0.00
2023-10-20T00:46:30.496Z,0.00
2023-10-20T00:47:30.546Z,0.00
2023-10-20T00:48:29.817Z,0.00
2023-10-20T00:49:29.909Z,0.00
2023-10-20T00:50:31.178Z,0.00
2023-10-20T00:51:29.800Z,0.00
2023-10-20T00:52:30.416Z,0.00
2023-10-20T00:53:29.752Z,0.00
2023-10-20T00:54:29.664Z,0.00
2023-10-20T00:55:30.393Z,0.00
2023-10-20T00:56:29.731Z,0.00
2023-10-20T00:57:30.338Z,0.00
2023-10-20T00:58:29.589Z,0.00
2023-10-20T00:59:29.608Z,0.00
2023-10-20T01:00:29.570Z,0.00
2023-10-20T01:01:29.571Z,0.00
2023-10-20T01:02:29.965Z,0.00
2023-10-20T01:03:29.602Z,0.00
2023-10-20T01:04:29.498Z,0.00
2023-10-20T01:05:29.931Z,0.00
2023-10-20T01:06:29.479Z,0.00
2023-10-20T01:07:29.460Z,0.00
2023-10-20T01:08:30.930Z,0.00
2023-10-20T01:09:29.447Z,0.00
2023-10-20T01:10:30.840Z,0.00
2023-10-20T01:11:30.186Z,0.00
2023-10-20T01:12:29.388Z,0.00
2023-10-20T01:13:29.859Z,0.00
2023-10-20T01:14:29.883Z,0.00
2023-10-20T01:15:29.371Z,0.00
2023-10-20T01:16:30.090Z,0.00
2023-10-20T01:17:29.943Z,0.00
2023-10-20T01:18:29.898Z,0.00
2023-10-20T01:19:30.020Z,0.00
2023-10-20T01:20:29.308Z,0.00
2023-10-20T01:21:29.914Z,0.00
2023-10-20T01:22:29.928Z,0.00
2023-10-20T01:23:29.947Z,0.00
2023-10-20T01:24:29.965Z,0.00
2023-10-20T01:25:29.969Z,0.00
2023-10-20T01:26:30.021Z,0.00
2023-10-20T01:27:29.583Z,0.00
2023-10-20T01:28:29.173Z,0.00
2023-10-20T01:29:29.230Z,0.00
2023-10-20T01:30:29.141Z,0.00
2023-10-20T01:31:29.152Z,0.00
2023-10-20T01:32:29.935Z,0.00
2023-10-20T01:33:29.920Z,0.00
2023-10-20T01:34:30.586Z,0.00
2023-10-20T01:35:29.952Z,0.00
2023-10-20T01:36:29.060Z,0.00
2023-10-20T01:37:29.076Z,0.00
2023-10-20T01:38:29.069Z,0.00
2023-10-20T01:39:29.026Z,0.00
2023-10-20T01:40:29.749Z,0.00
2023-10-20T01:41:29.030Z,0.00
2023-10-20T01:42:28.986Z,0.00
2023-10-20T01:43:29.718Z,0.00
2023-10-20T01:44:28.995Z,0.00
2023-10-20T01:45:30.341Z,0.00
2023-10-20T01:46:28.957Z,0.00
2023-10-20T01:47:29.070Z,0.00
2023-10-20T01:48:29.691Z,0.00
2023-10-20T01:49:29.197Z,0.00
2023-10-20T01:50:28.877Z,0.00
2023-10-20T01:51:30.268Z,0.00
2023-10-20T01:52:28.836Z,0.00
2023-10-20T01:53:28.922Z,0.00
2023-10-20T01:54:28.815Z,0.00
2023-10-20T01:55:28.809Z,0.00
2023-10-20T01:56:29.625Z,0.00
2023-10-20T01:57:28.779Z,0.00
2023-10-20T01:58:28.768Z,0.00
2023-10-20T01:59:29.512Z,0.00
2023-10-20T02:00:28.724Z,0.00
2023-10-20T02:01:29.562Z,0.00
2023-10-20T02:02:28.856Z,0.00
2023-10-20T02:03:28.858Z,0.00
2023-10-20T02:04:29.408Z,0.00
2023-10-20T02:05:28.697Z,0.00
2023-10-20T02:06:30.074Z,0.00
2023-10-20T02:07:29.113Z,0.00
2023-10-20T02:08:28.662Z,0.00
2023-10-20T02:09:28.920Z,0.00
2023-10-20T02:10:28.644Z,0.00
2023-10-20T02:11:28.605Z,0.00
2023-10-20T02:12:29.163Z,0.00
2023-10-20T02:13:29.171Z,0.00
2023-10-20T02:14:29.208Z,0.00
2023-10-20T02:15:29.261Z,0.00
2023-10-20T02:16:28.525Z,0.00
2023-10-20T02:17:28.561Z,0.00
2023-10-20T02:18:28.645Z,0.00
2023-10-20T02:19:28.590Z,0.00
2023-10-20T02:20:29.271Z,0.00
2023-10-20T02:21:30.391Z,0.00
2023-10-20T02:22:28.712Z,0.00
2023-10-20T02:23:29.188Z,0.00
2023-10-20T02:24:28.830Z,0.00
2023-10-20T02:25:28.834Z,0.00
2023-10-20T02:26:28.874Z,0.00
2023-10-20T02:27:29.074Z,0.00
2023-10-20T02:28:28.451Z,0.00
2023-10-20T02:29:28.991Z,0.00
2023-10-20T02:30:28.309Z,0.00
2023-10-20T02:31:28.936Z,0.00
2023-10-20T02:32:29.120Z,0.00
2023-10-20T02:33:30.227Z,0.00
2023-10-20T02:34:28.255Z,0.00
2023-10-20T02:35:30.244Z,0.00
2023-10-20T02:36:29.651Z,0.00
2023-10-20T02:37:28.220Z,0.00
2023-10-20T02:38:28.240Z,0.00
2023-10-20T02:39:28.929Z,0.00
2023-10-20T02:40:28.186Z,0.00
2023-10-20T02:41:28.894Z,0.00
2023-10-20T02:42:28.162Z,0.00
2023-10-20T02:43:28.157Z,0.00
2023-10-20T02:44:28.908Z,0.00
2023-10-20T02:45:30.071Z,0.00
2023-10-20T02:46:28.147Z,0.00
2023-10-20T02:47:28.124Z,0.00
2023-10-20T02:48:28.111Z,0.00
2023-10-20T02:49:28.066Z,0.00
2023-10-20T02:50:28.117Z,0.00
2023-10-20T02:51:28.399Z,0.00
2023-10-20T02:52:28.000Z,0.00
2023-10-20T02:53:28.038Z,0.00
2023-10-20T02:54:29.397Z,0.00
2023-10-20T02:55:28.155Z,0.00
2023-10-20T02:56:27.976Z,0.00
2023-10-20T02:57:29.889Z,0.00
2023-10-20T02:58:27.916Z,0.00
2023-10-20T02:59:29.347Z,0.00
2023-10-20T03:00:27.903Z,0.00
2023-10-20T03:01:27.957Z,0.00
2023-10-20T03:02:28.106Z,0.00
2023-10-20T03:03:29.967Z,0.00
2023-10-20T03:04:28.021Z,0.00
2023-10-20T03:05:27.868Z,0.00
2023-10-20T03:06:27.809Z,0.00
2023-10-20T03:07:27.805Z,0.00
2023-10-20T03:08:27.824Z,0.00
2023-10-20T03:09:28.493Z,0.00
2023-10-20T03:10:27.761Z,0.00
2023-10-20T03:11:27.769Z,0.00
2023-10-20T03:12:27.732Z,0.00
2023-10-20T03:13:27.724Z,0.00
2023-10-20T03:14:27.730Z,0.00
2023-10-20T03:15:27.853Z,0.00
2023-10-20T03:16:28.023Z,0.00
2023-10-20T03:17:28.030Z,0.00
2023-10-20T03:18:27.702Z,0.00
2023-10-20T03:19:27.640Z,0.00
2023-10-20T03:20:27.676Z,0.00
2023-10-20T03:21:27.913Z,0.00
2023-10-20T03:22:27.598Z,0.00
2023-10-20T03:23:28.051Z,0.00
2023-10-20T03:24:28.015Z,0.00
2023-10-20T03:25:28.020Z,0.00
2023-10-20T03:26:27.626Z,0.00
2023-10-20T03:27:27.602Z,0.00
2023-10-20T03:28:27.586Z,0.00
2023-10-20T03:29:27.568Z,0.00
2023-10-20T03:30:27.473Z,0.00
2023-10-20T03:31:28.035Z,0.00
2023-10-20T03:32:27.999Z,0.00
2023-10-20T03:33:27.885Z,0.00
2023-10-20T03:34:27.984Z,0.00
2023-10-20T03:35:28.039Z,0.00
2023-10-20T03:36:27.383Z,0.00
2023-10-20T03:37:27.372Z,0.00
2023-10-20T03:38:27.417Z,0.00
2023-10-20T03:39:27.357Z,0.00
2023-10-20T03:40:27.340Z,0.00
2023-10-20T03:41:28.109Z,0.00
2023-10-20T03:42:27.298Z,0.00
2023-10-20T03:43:27.277Z,0.00
2023-10-20T03:44:27.350Z,0.00
2023-10-20T03:45:27.250Z,0.00
2023-10-20T03:46:27.265Z,0.00
2023-10-20T03:47:27.328Z,0.00
2023-10-20T03:48:27.327Z,0.00
2023-10-20T03:49:27.943Z,0.00
2023-10-20T03:50:27.254Z,0.00
2023-10-20T03:51:27.168Z,0.00
2023-10-20T03:52:27.180Z,0.00
2023-10-20T03:53:27.164Z,0.00
2023-10-20T03:54:27.136Z,0.00
2023-10-20T03:55:27.861Z,0.00
2023-10-20T03:56:27.861Z,0.00
2023-10-20T03:57:27.106Z,0.00
2023-10-20T03:58:27.071Z,0.00
2023-10-20T03:59:27.092Z,0.00
2023-10-20T04:00:27.040Z,0.00
2023-10-20T04:01:27.105Z,0.00
2023-10-20T04:02:27.058Z,0.00
2023-10-20T04:03:27.023Z,0.00
2023-10-20T04:04:27.075Z,0.00
2023-10-20T04:05:27.086Z,0.00
2023-10-20T04:06:27.121Z,0.00
2023-10-20T04:07:26.963Z,0.00
2023-10-20T04:08:27.004Z,0.00
2023-10-20T04:09:26.913Z,0.00
2023-10-20T04:10:26.904Z,0.00
2023-10-20T04:11:27.337Z,0.00
2023-10-20T04:12:26.889Z,0.00
2023-10-20T04:13:27.659Z,0.00
2023-10-20T04:14:27.406Z,0.00
2023-10-20T04:15:26.900Z,0.00
2023-10-20T04:16:26.872Z,0.00
2023-10-20T04:17:26.923Z,0.00
2023-10-20T04:18:26.805Z,0.00
2023-10-20T04:19:27.520Z,0.00
2023-10-20T04:20:27.792Z,0.00
2023-10-20T04:21:27.227Z,0.00
2023-10-20T04:22:27.233Z,0.00
2023-10-20T04:23:26.715Z,0.00
2023-10-20T04:24:26.701Z,0.00
2023-10-20T04:25:26.693Z,0.00
2023-10-20T04:26:26.693Z,0.00
2023-10-20T04:27:27.396Z,0.00
2023-10-20T04:28:26.838Z,0.00
2023-10-20T04:29:26.919Z,0.00
2023-10-20T04:30:26.624Z,0.00
2023-10-20T04:31:26.629Z,0.00
2023-10-20T04:32:27.073Z,0.00
2023-10-20T04:33:26.676Z,0.00
2023-10-20T04:34:26.565Z,0.00
2023-10-20T04:35:27.964Z,0.00
2023-10-20T04:36:26.532Z,0.00
2023-10-20T04:37:27.102Z,0.00
2023-10-20T04:38:26.577Z,0.00
2023-10-20T04:39:27.181Z,0.00
2023-10-20T04:40:26.523Z,0.00
2023-10-20T04:41:27.395Z,0.00
2023-10-20T04:42:27.202Z,0.00
2023-10-20T04:43:27.193Z,0.00
2023-10-20T04:44:27.236Z,0.00
2023-10-20T04:45:27.136Z,0.00
2023-10-20T04:46:27.079Z,0.00
2023-10-20T04:47:26.633Z,0.00
2023-10-20T04:48:27.206Z,0.00
2023-10-20T04:49:26.343Z,0.00
2023-10-20T04:50:26.347Z,0.00
2023-10-20T04:51:26.298Z,0.00
2023-10-20T04:52:26.289Z,0.00
2023-10-20T04:53:26.343Z,0.00
2023-10-20T04:54:26.278Z,0.00
2023-10-20T04:55:26.256Z,0.00
2023-10-20T04:56:26.249Z,0.00
2023-10-20T04:57:26.237Z,0.00
2023-10-20T04:58:26.204Z,0.00
2023-10-20T04:59:26.204Z,0.00
2023-10-20T05:00:26.305Z,0.00
2023-10-20T05:01:26.197Z,0.00
2023-10-20T05:02:26.213Z,0.00
2023-10-20T05:03:26.205Z,0.00
2023-10-20T05:04:26.122Z,0.00
2023-10-20T05:05:26.501Z,0.00
2023-10-20T05:06:26.821Z,0.00
2023-10-20T05:07:26.817Z,0.00
2023-10-20T05:08:26.851Z,0.00
2023-10-20T05:09:26.858Z,0.00
2023-10-20T05:10:26.770Z,0.00
2023-10-20T05:11:26.787Z,0.00
2023-10-20T05:12:26.745Z,0.00
2023-10-20T05:13:27.391Z,0.00
2023-10-20T05:14:26.735Z,0.00
2023-10-20T05:15:26.696Z,0.00
2023-10-20T05:16:26.718Z,0.00
2023-10-20T05:17:26.722Z,0.00
2023-10-20T05:18:26.718Z,0.00
2023-10-20T05:19:25.906Z,0.00
2023-10-20T05:20:26.703Z,0.00
2023-10-20T05:21:27.288Z,0.00
2023-10-20T05:22:25.866Z,0.00
2023-10-20T05:23:27.304Z,0.00
2023-10-20T05:24:25.973Z,0.00
2023-10-20T05:25:26.543Z,0.00
2023-10-20T05:26:25.984Z,0.00
2023-10-20T05:27:25.793Z,0.00
2023-10-20T05:28:25.782Z,0.00
2023-10-20T05:29:25.815Z,0.00
2023-10-20T05:30:25.765Z,0.00
2023-10-20T05:31:26.584Z,0.00
2023-10-20T05:32:25.859Z,0.00
2023-10-20T05:33:26.045Z,0.00
2023-10-20T05:34:25.725Z,0.00
2023-10-20T05:35:25.704Z,0.00
2023-10-20T05:36:25.669Z,0.00
2023-10-20T05:37:25.665Z,0.00
2023-10-20T05:38:25.798Z,0.00
2023-10-20T05:39:26.410Z,0.00
2023-10-20T05:40:26.090Z,0.00
2023-10-20T05:41:25.671Z,0.00
2023-10-20T05:42:25.599Z,0.00
2023-10-20T05:43:25.592Z,0.00
2023-10-20T05:44:26.307Z,0.00
2023-10-20T05:45:26.027Z,0.00
2023-10-20T05:46:25.605Z,0.00
2023-10-20T05:47:27.015Z,0.00
2023-10-20T05:48:25.574Z,0.00
2023-10-20T05:49:25.607Z,0.00
2023-10-20T05:50:26.266Z,0.00
2023-10-20T05:51:25.503Z,0.00
2023-10-20T05:52:26.027Z,0.00
2023-10-20T05:53:25.483Z,0.00
2023-10-20T05:54:25.453Z,0.00
2023-10-20T05:55:27.885Z,0.00
2023-10-20T05:56:27.453Z,0.00
2023-10-20T05:57:26.819Z,0.00
2023-10-20T05:58:25.474Z,0.00
2023-10-20T05:59:25.406Z,0.00
2023-10-20T06:00:25.359Z,0.00
2023-10-20T06:01:25.366Z,0.00
2023-10-20T06:02:25.370Z,0.00
2023-10-20T06:03:25.357Z,0.00
2023-10-20T06:04:26.068Z,0.00
2023-10-20T06:05:25.344Z,0.00
2023-10-20T06:06:25.292Z,0.00
2023-10-20T06:07:25.263Z,0.00
2023-10-20T06:08:26.014Z,0.00
2023-10-20T06:09:25.241Z,0.00
2023-10-20T06:10:25.243Z,0.00
2023-10-20T06:11:26.028Z,0.00
2023-10-20T06:12:25.201Z,0.00
2023-10-20T06:13:25.914Z,0.00
2023-10-20T06:14:25.960Z,0.00
2023-10-20T06:15:25.147Z,0.00
2023-10-20T06:16:25.260Z,0.00
2023-10-20T06:17:25.140Z,0.00
2023-10-20T06:18:34.752Z,0.00
2023-10-20T06:19:26.817Z,0.00
2023-10-20T06:20:25.835Z,0.00
2023-10-20T06:21:25.071Z,0.00
2023-10-20T06:22:27.009Z,0.00
2023-10-20T06:23:25.104Z,0.00
2023-10-20T06:24:25.117Z,0.00
2023-10-20T06:25:25.005Z,0.00
2023-10-20T06:26:25.750Z,0.00
2023-10-20T06:27:26.403Z,0.00
2023-10-20T06:28:25.707Z,0.00
2023-10-20T06:29:25.106Z,0.00
2023-10-20T06:30:26.909Z,0.00
2023-10-20T06:31:25.011Z,0.00
2023-10-20T06:32:25.122Z,0.00
2023-10-20T06:33:24.980Z,0.00
2023-10-20T06:34:24.890Z,0.00
2023-10-20T06:35:26.905Z,0.00
2023-10-20T06:36:24.886Z,0.00
2023-10-20T06:37:25.365Z,0.00
2023-10-20T06:38:24.888Z,0.00
2023-10-20T06:39:24.853Z,0.00
2023-10-20T06:40:25.364Z,0.00
2023-10-20T06:41:24.845Z,0.00
2023-10-20T06:42:24.771Z,0.00
2023-10-20T06:43:25.465Z,0.00
2023-10-20T06:44:24.806Z,0.00
2023-10-20T06:45:24.726Z,0.00
2023-10-20T06:46:25.510Z,0.00
2023-10-20T06:47:24.948Z,0.00
2023-10-20T06:48:24.726Z,0.00
2023-10-20T06:49:24.677Z,0.00
2023-10-20T06:50:25.006Z,0.00
2023-10-20T06:51:25.380Z,0.00
2023-10-20T06:52:24.628Z,0.00
2023-10-20T06:53:25.163Z,0.00
2023-10-20T06:54:24.617Z,0.00
2023-10-20T06:55:51.007Z,0.00
2023-10-20T06:56:28.698Z,0.00
2023-10-20T06:57:25.140Z,0.00
2023-10-20T06:58:24.553Z,0.00
2023-10-20T06:59:25.331Z,0.00
2023-10-20T07:00:25.258Z,0.00
2023-10-20T07:01:25.248Z,0.00
2023-10-20T07:02:25.364Z,0.00
2023-10-20T07:03:24.621Z,0.00
2023-10-20T07:04:24.891Z,0.00
2023-10-20T07:05:24.534Z,0.00
2023-10-20T07:06:24.449Z,0.00
2023-10-20T07:07:25.825Z,0.00
2023-10-20T07:08:25.179Z,0.00
2023-10-20T07:09:24.406Z,0.00
2023-10-20T07:10:24.375Z,0.00
2023-10-20T07:11:24.371Z,0.00
2023-10-20T07:12:24.350Z,0.00
2023-10-20T07:13:24.353Z,0.00
2023-10-20T07:14:24.363Z,0.00
2023-10-20T07:15:25.046Z,0.00
2023-10-20T07:16:25.065Z,0.00
2023-10-20T07:17:24.412Z,0.00
2023-10-20T07:18:24.445Z,0.00
2023-10-20T07:19:24.255Z,0.00
2023-10-20T07:20:24.442Z,0.00
2023-10-20T07:21:24.263Z,0.00
2023-10-20T07:22:26.655Z,0.00
2023-10-20T07:23:25.645Z,0.00
2023-10-20T07:24:25.591Z,0.00
2023-10-20T07:25:24.186Z,0.00
2023-10-20T07:26:24.205Z,0.00
2023-10-20T07:27:24.168Z,0.00
2023-10-20T07:28:24.415Z,0.00
2023-10-20T07:29:24.184Z,0.00
2023-10-20T07:30:24.116Z,0.00
2023-10-20T07:31:24.886Z,0.00
2023-10-20T07:32:25.618Z,0.00
2023-10-20T07:33:24.119Z,0.00
2023-10-20T07:34:24.042Z,0.00
2023-10-20T07:35:24.049Z,0.00
2023-10-20T07:36:24.740Z,0.00
2023-10-20T07:37:24.003Z,0.00
2023-10-20T07:38:24.034Z,0.00
2023-10-20T07:39:24.712Z,0.00
2023-10-20T07:40:24.088Z,0.00
2023-10-20T07:41:23.987Z,0.00
2023-10-20T07:42:24.674Z,0.00
2023-10-20T07:43:23.935Z,0.00
2023-10-20T07:44:23.987Z,0.00
2023-10-20T07:45:23.941Z,0.00
2023-10-20T07:46:24.099Z,0.00
2023-10-20T07:47:24.152Z,0.00
2023-10-20T07:48:24.605Z,0.00
2023-10-20T07:49:24.111Z,0.00
2023-10-20T07:50:24.143Z,0.00
2023-10-20T07:51:23.883Z,0.00
2023-10-20T07:52:23.808Z,0.00
2023-10-20T07:53:23.824Z,0.00
2023-10-20T07:54:23.753Z,0.00
2023-10-20T07:55:23.783Z,0.00
2023-10-20T07:56:23.735Z,0.00
2023-10-20T07:57:23.726Z,0.00
2023-10-20T07:58:23.703Z,0.00
2023-10-20T07:59:23.723Z,0.00
2023-10-20T08:00:24.102Z,0.00
2023-10-20T08:01:24.180Z,0.00
2023-10-20T08:02:23.692Z,0.00
2023-10-20T08:03:24.537Z,0.00
2023-10-20T08:04:25.240Z,0.00
2023-10-20T08:05:23.819Z,0.00
2023-10-20T08:06:24.074Z,0.00
2023-10-20T08:07:23.810Z,0.00
2023-10-20T08:08:24.131Z,0.00
2023-10-20T08:09:23.613Z,0.00
2023-10-20T08:10:24.968Z,0.00
2023-10-20T08:11:24.322Z,0.00
2023-10-20T08:12:24.121Z,0.00
2023-10-20T08:13:23.504Z,0.00
2023-10-20T08:14:23.528Z,0.00
2023-10-20T08:15:24.149Z,0.00
2023-10-20T08:16:23.541Z,0.00
2023-10-20T08:17:23.500Z,0.00
2023-10-20T08:18:23.485Z,0.00
2023-10-20T08:19:24.834Z,0.00
2023-10-20T08:20:24.193Z,0.00
2023-10-20T08:21:23.391Z,0.00
2023-10-20T08:22:24.582Z,0.00
2023-10-20T08:23:23.399Z,0.00
2023-10-20T08:24:23.356Z,0.00
2023-10-20T08:25:23.329Z,0.00
2023-10-20T08:26:24.172Z,0.00
2023-10-20T08:27:25.264Z,0.00
2023-10-20T08:28:24.716Z,0.00
2023-10-20T08:29:24.010Z,0.00
2023-10-20T08:30:23.279Z,0.00
2023-10-20T08:31:23.510Z,0.00
2023-10-20T08:32:23.272Z,0.00
2023-10-20T08:33:23.314Z,0.00
2023-10-20T08:34:23.203Z,0.00
2023-10-20T08:35:23.226Z,0.00
2023-10-20T08:36:23.171Z,0.00
2023-10-20T08:37:23.170Z,0.00
2023-10-20T08:38:23.190Z,0.00
2023-10-20T08:39:23.131Z,0.00
2023-10-20T08:40:23.869Z,0.00
2023-10-20T08:41:23.292Z,0.00
2023-10-20T08:42:23.817Z,0.00
2023-10-20T08:43:23.801Z,0.00
2023-10-20T08:44:23.950Z,0.00
2023-10-20T08:45:23.141Z,0.00
2023-10-20T08:46:23.152Z,0.00
2023-10-20T08:47:23.877Z,0.00
2023-10-20T08:48:23.274Z,0.00
2023-10-20T08:49:23.074Z,0.00
2023-10-20T08:50:23.545Z,0.00
2023-10-20T08:51:23.007Z,0.00
2023-10-20T08:52:23.713Z,0.00
2023-10-20T08:53:23.052Z,0.00
2023-10-20T08:54:22.938Z,0.00
2023-10-20T08:55:23.734Z,0.00
2023-10-20T08:56:23.937Z,0.00
2023-10-20T08:57:24.644Z,0.00
2023-10-20T08:58:26.248Z,0.00
2023-10-20T08:59:23.559Z,0.00
2023-10-20T09:00:23.585Z,0.00
2023-10-20T09:01:24.824Z,0.00
2023-10-20T09:02:22.886Z,0.00
2023-10-20T09:03:22.952Z,0.00
2023-10-20T09:04:22.832Z,0.00
2023-10-20T09:05:22.832Z,0.00
2023-10-20T09:06:22.773Z,0.00
2023-10-20T09:07:22.784Z,0.00
2023-10-20T09:08:22.825Z,0.00
2023-10-20T09:09:22.714Z,0.00
2023-10-20T09:10:22.713Z,0.00
2023-10-20T09:11:22.710Z,0.00
2023-10-20T09:12:23.654Z,0.00
2023-10-20T09:13:22.663Z,0.00
2023-10-20T09:14:23.415Z,0.00
2023-10-20T09:15:23.165Z,0.00
2023-10-20T09:16:23.428Z,0.00
2023-10-20T09:17:22.727Z,0.00
2023-10-20T09:18:23.304Z,0.00
2023-10-20T09:19:23.292Z,0.00
2023-10-20T09:20:22.606Z,0.00
2023-10-20T09:21:22.565Z,0.00
2023-10-20T09:22:22.536Z,0.00
2023-10-20T09:23:22.574Z,0.00
2023-10-20T09:24:22.518Z,0.00
2023-10-20T09:25:22.571Z,0.00
2023-10-20T09:26:22.527Z,0.00
2023-10-20T09:27:22.475Z,0.00
2023-10-20T09:28:22.479Z,0.00
2023-10-20T09:29:22.486Z,0.00
2023-10-20T09:30:23.153Z,0.00
2023-10-20T09:31:22.425Z,0.00
2023-10-20T09:32:23.277Z,0.00
2023-10-20T09:33:22.719Z,0.00
2023-10-20T09:34:22.456Z,0.00
2023-10-20T09:35:22.450Z,0.00
2023-10-20T09:36:22.344Z,0.00
2023-10-20T09:37:22.333Z,0.00
2023-10-20T09:38:22.381Z,0.00
2023-10-20T09:39:22.319Z,0.00
2023-10-20T09:40:22.559Z,0.00
2023-10-20T09:41:22.328Z,0.00
2023-10-20T09:42:22.263Z,0.00
2023-10-20T09:43:26.189Z,0.00
2023-10-20T09:44:22.299Z,0.00
2023-10-20T09:45:22.222Z,0.00
2023-10-20T09:46:22.964Z,0.00
2023-10-20T09:47:22.300Z,0.00
2023-10-20T09:48:22.227Z,0.00
2023-10-20T09:49:22.175Z,0.00
2023-10-20T09:50:22.195Z,0.00
2023-10-20T09:51:22.182Z,0.00
2023-10-20T09:52:22.149Z,0.00
2023-10-20T09:53:23.559Z,0.00
2023-10-20T09:54:22.109Z,0.00
2023-10-20T09:55:22.089Z,0.00
2023-10-20T09:56:22.092Z,0.00
2023-10-20T09:57:22.100Z,0.00
2023-10-20T09:58:22.098Z,0.00
2023-10-20T09:59:22.140Z,0.00
2023-10-20T10:00:22.052Z,0.00
2023-10-20T10:01:22.092Z,0.00
2023-10-20T10:02:22.287Z,0.00
2023-10-20T10:03:23.574Z,0.00
2023-10-20T10:04:21.979Z,0.00
2023-10-20T10:05:22.005Z,0.00
2023-10-20T10:06:21.950Z,0.00
2023-10-20T10:07:21.925Z,0.00
2023-10-20T10:08:21.932Z,0.00
2023-10-20T10:09:21.898Z,0.00
2023-10-20T10:10:22.613Z,0.00
2023-10-20T10:11:22.264Z,0.00
2023-10-20T10:12:22.245Z,0.00
2023-10-20T10:13:21.822Z,0.00
2023-10-20T10:14:22.279Z,0.00
2023-10-20T10:15:22.231Z,0.00
2023-10-20T10:16:22.266Z,0.00
2023-10-20T10:17:21.823Z,0.00
2023-10-20T10:18:22.657Z,0.00
2023-10-20T10:19:22.231Z,0.00
2023-10-20T10:20:22.273Z,0.00
2023-10-20T10:21:21.723Z,0.00
2023-10-20T10:22:21.708Z,0.00
2023-10-20T10:23:21.735Z,0.00
2023-10-20T10:24:22.675Z,0.00
2023-10-20T10:25:22.236Z,0.00
2023-10-20T10:26:22.452Z,0.00
2023-10-20T10:27:22.391Z,0.00
2023-10-20T10:28:21.648Z,0.00
2023-10-20T10:29:21.618Z,0.00
2023-10-20T10:30:21.611Z,0.00
2023-10-20T10:31:21.641Z,0.00
2023-10-20T10:32:21.615Z,0.00
2023-10-20T10:33:21.733Z,0.00
2023-10-20T10:34:22.316Z,0.00
2023-10-20T10:35:24.546Z,0.00
2023-10-20T10:36:21.546Z,0.00
2023-10-20T10:37:22.234Z,0.00
2023-10-20T10:38:21.555Z,0.00
2023-10-20T10:39:21.462Z,0.00
2023-10-20T10:40:21.463Z,0.00
2023-10-20T10:41:21.483Z,0.00
2023-10-20T10:42:22.182Z,0.00
2023-10-20T10:43:21.405Z,0.00
2023-10-20T10:44:22.164Z,0.00
2023-10-20T10:45:22.126Z,0.00
2023-10-20T10:46:21.367Z,0.00
2023-10-20T10:47:21.431Z,0.00
2023-10-20T10:48:21.453Z,0.00
2023-10-20T10:49:21.332Z,0.00
2023-10-20T10:50:21.684Z,0.00
2023-10-20T10:51:21.498Z,0.00
2023-10-20T10:52:21.272Z,0.00
2023-10-20T10:53:21.301Z,0.00
2023-10-20T10:54:21.246Z,0.00
2023-10-20T10:55:21.951Z,0.00
2023-10-20T10:56:21.285Z,0.00
2023-10-20T10:57:21.208Z,0.00
2023-10-20T10:58:21.982Z,0.00
2023-10-20T10:59:21.651Z,5.46
2023-10-20T11:00:21.637Z,0.00
2023-10-20T11:01:21.154Z,0.20
2023-10-20T11:02:21.164Z,5.45
2023-10-20T11:03:25.547Z,8.28
2023-10-20T11:04:21.191Z,2.02
2023-10-20T11:05:21.119Z,7.68
2023-10-20T11:06:21.820Z,4.64
2023-10-20T11:07:21.663Z,0.60
2023-10-20T11:08:21.674Z,8.39
2023-10-20T11:09:21.783Z,3.43
2023-10-20T11:10:21.012Z,3.74
2023-10-20T11:11:21.683Z,6.87
2023-10-20T11:12:20.991Z,9.80
2023-10-20T11:13:22.086Z,7.47
2023-10-20T11:14:22.552Z,7.67
2023-10-20T11:15:23.218Z,10.09
2023-10-20T11:16:24.207Z,11.60
2023-10-20T11:17:21.732Z,8.07
2023-10-20T11:18:20.961Z,15.33
2023-10-20T11:19:21.646Z,16.04
2023-10-20T11:20:20.896Z,12.71
2023-10-20T11:21:20.942Z,13.21
2023-10-20T11:22:22.308Z,15.64
2023-10-20T11:23:21.605Z,9.19
2023-10-20T11:24:21.564Z,8.78
2023-10-20T11:25:20.952Z,5.35
2023-10-20T11:26:20.905Z,12.11
2023-10-20T11:27:22.203Z,7.97
2023-10-20T11:28:20.793Z,9.48
2023-10-20T11:29:21.091Z,11.51
2023-10-20T11:30:22.192Z,6.76
2023-10-20T11:31:21.538Z,14.34
2023-10-20T11:32:20.774Z,9.59
2023-10-20T11:33:21.189Z,9.89
2023-10-20T11:34:20.704Z,10.40
2023-10-20T11:35:22.119Z,8.08
2023-10-20T11:36:20.656Z,19.40
2023-10-20T11:37:21.442Z,16.27
2023-10-20T11:38:21.436Z,32.43
2023-10-20T11:39:21.365Z,20.00
2023-10-20T11:40:20.619Z,22.73
2023-10-20T11:41:20.627Z,28.89
2023-10-20T11:42:20.588Z,28.19
2023-10-20T11:43:21.299Z,17.47
2023-10-20T11:44:20.724Z,21.20
2023-10-20T11:45:20.542Z,17.27
2023-10-20T11:46:21.294Z,26.66
2023-10-20T11:47:21.950Z,26.57
2023-10-20T11:48:20.593Z,22.93
2023-10-20T11:49:21.231Z,17.38
2023-10-20T11:50:20.834Z,26.58
2023-10-20T11:51:21.264Z,33.97
2023-10-20T11:52:20.483Z,30.13
2023-10-20T11:53:20.503Z,23.36
2023-10-20T11:54:21.173Z,17.49
2023-10-20T11:55:22.377Z,11.93
2023-10-20T11:56:21.195Z,23.97
2023-10-20T11:57:20.400Z,21.04
2023-10-20T11:58:20.361Z,17.60
2023-10-20T11:59:21.225Z,13.96
2023-10-20T12:00:20.345Z,20.34
2023-10-20T12:01:20.421Z,14.47
2023-10-20T12:02:24.071Z,17.10
2023-10-20T12:03:21.158Z,16.29
2023-10-20T12:04:20.344Z,8.90
2023-10-20T12:05:20.369Z,11.94
2023-10-20T12:06:20.278Z,15.99
2023-10-20T12:07:20.333Z,28.63
2023-10-20T12:08:20.266Z,24.69
2023-10-20T12:09:20.221Z,24.89
2023-10-20T12:10:20.257Z,27.32
2023-10-20T12:11:21.639Z,22.77
2023-10-20T12:12:20.190Z,30.86
2023-10-20T12:13:20.177Z,27.92
2023-10-20T12:14:20.893Z,23.07
2023-10-20T12:15:20.452Z,19.93
2023-10-20T12:16:20.165Z,23.77
2023-10-20T12:17:20.135Z,25.19
2023-10-20T12:18:21.647Z,23.58
2023-10-20T12:19:20.352Z,26.82
2023-10-20T12:20:20.142Z,23.38
2023-10-20T12:21:20.069Z,15.79
2023-10-20T12:22:20.040Z,15.88
2023-10-20T12:23:20.371Z,19.94
2023-10-20T12:24:20.356Z,18.22
2023-10-20T12:25:20.066Z,17.51
2023-10-20T12:26:20.005Z,13.56
2023-10-20T12:27:20.348Z,17.82
2023-10-20T12:28:20.761Z,24.29
2023-10-20T12:29:19.966Z,19.84
2023-10-20T12:30:20.691Z,26.62
2023-10-20T12:31:20.814Z,19.94
2023-10-20T12:32:20.412Z,28.05
2023-10-20T12:33:21.451Z,14.17
2023-10-20T12:34:20.588Z,14.67
2023-10-20T12:35:21.936Z,15.69
2023-10-20T12:36:20.364Z,19.03
2023-10-20T12:37:19.847Z,21.47
2023-10-20T12:38:20.632Z,18.22
2023-10-20T12:39:20.521Z,16.50
2023-10-20T12:40:19.795Z,25.81
2023-10-20T12:41:21.189Z,18.62
2023-10-20T12:42:21.181Z,14.58
2023-10-20T12:43:21.151Z,11.03
2023-10-20T12:44:19.863Z,10.73
2023-10-20T12:45:19.729Z,18.93
2023-10-20T12:46:20.360Z,15.79
2023-10-20T12:47:19.731Z,19.43
2023-10-20T12:48:19.991Z,13.06
2023-10-20T12:49:19.830Z,15.39
2023-10-20T12:50:21.101Z,17.63
2023-10-20T12:51:20.384Z,12.16
2023-10-20T12:52:19.817Z,9.01
2023-10-20T12:53:19.665Z,11.04
2023-10-20T12:54:20.332Z,5.37
2023-10-20T12:55:19.813Z,1.21
2023-10-20T12:56:19.684Z,10.74
2023-10-20T12:57:20.957Z,6.38
2023-10-20T12:58:19.549Z,1.72
2023-10-20T12:59:19.562Z,0.00
2023-10-20T13:00:19.534Z,2.33
2023-10-20T13:01:19.500Z,0.00
2023-10-20T13:02:19.525Z,0.00
2023-10-20T13:03:19.563Z,0.00
2023-10-20T13:04:19.578Z,0.20
2023-10-20T13:05:19.442Z,1.31
2023-10-20T13:06:20.171Z,9.74
2023-10-20T13:07:20.185Z,1.62
2023-10-20T13:08:20.165Z,0.00
2023-10-20T13:09:19.391Z,7.09
2023-10-20T13:10:20.112Z,1.62
2023-10-20T13:11:19.902Z,2.73
2023-10-20T13:12:19.360Z,6.68
2023-10-20T13:13:19.822Z,7.09
2023-10-20T13:14:19.426Z,15.30
2023-10-20T13:15:19.806Z,13.57